Flight Track Log - Related Links

Times and Time Zones

All times are in EDT time to prevent confusion due to time zone crossing. See the ASQ4209 flight status page for this flight to view local times or setup timezone preferences in your user account.

Time Position Orientation Groundspeed Altitude Reporting Facility
EDT Latitude Longitude Course Direction KTS MPH feet Rate Location/Type
Fri 01:06:00 PM 29.9833 -95.1694 90° East  Level FlightAware Approximate
Fri 01:07:00 PM 29.9833 -95.0875 90° East  Level FlightAware Approximate
Fri 01:08:00 PM 29.9834 -95.0057 90° East  Level FlightAware Approximate
Fri 01:09:00 PM 29.9834 -94.9238 90° East  Level FlightAware Approximate
Fri 01:10:00 PM 29.9833 -94.8420 90° East  Level FlightAware Approximate
Fri 01:11:00 PM 29.9834 -94.7601 90° East  Level FlightAware Approximate
Fri 01:12:00 PM 29.9833 -94.6783 90° East  Level FlightAware Approximate
Fri 01:12:29 PM 29.9572 -95.3392 77° East 168 193 900  Level Houston Center
Fri 01:13:00 PM 29.9833 -94.5964 90° East  Level FlightAware Approximate
Fri 01:14:00 PM 29.9834 -94.5146 90° East  Level FlightAware Approximate
Fri 01:14:08 PM 29.8933 -95.2408 127° Southeast 280 322 3,800  Level Houston Center
Fri 01:15:00 PM 29.9834 -94.4327 90° East  Level FlightAware Approximate
Fri 01:15:09 PM 29.8450 -95.1722 129° Southeast 273 314 5,700  Level Houston Center
Fri 01:16:00 PM 29.9833 -94.3402 90° East  Level FlightAware Approximate
Fri 01:16:20 PM 29.8236 -95.0903 107° East 282 325 8,400  Level Houston Center
Fri 01:17:00 PM 29.9935 -94.2490 77° East  Level FlightAware Approximate
Fri 01:17:22 PM 29.8564 -94.9864 70° East 289 333 10,800  Level Houston Center
Fri 01:18:24 PM 29.8878 -94.8869 70° East 318 366 11,600 1,161 Climbing Houston Center
Fri 01:19:26 PM 29.9222 -94.7789 70° East 349 402 13,200 1,632 Climbing Houston Center
Fri 01:20:29 PM 29.9564 -94.6711 70° East 358 412 15,000 1,584 Climbing Houston Center
Fri 01:21:31 PM 29.9883 -94.5642 71° East 354 407 16,500 1,500 Climbing Houston Center
Fri 01:22:33 PM 29.9911 -94.4247 89° East 363 418 18,100 1,452 Climbing Houston Center
Fri 01:23:35 PM 29.9964 -94.3058 87° East 371 427 19,500 1,355 Climbing Houston Center
Fri 01:24:37 PM 30.0111 -94.1847 82° East 380 437 20,900 1,306 Climbing Houston Center
Fri 01:25:39 PM 30.0269 -94.0614 82° East 387 445 22,200 1,016 Climbing Houston Center
Fri 01:26:41 PM 30.0408 -93.9364 83° East 393 452 23,000 387 Climbing Houston Center
Fri 01:27:43 PM 30.0586 -93.8031 81° East 412 474 23,000  Level Houston Center
Fri 01:28:45 PM 30.0783 -93.6356 82° East 437 503 23,000  Level Houston Center
Fri 01:29:47 PM 30.0942 -93.4972 82° East 441 507 23,000  Level Houston Center
Fri 01:30:49 PM 30.1103 -93.3622 82° East 433 498 23,000  Level Houston Center
Fri 01:31:51 PM 30.1264 -93.2253 82° East 435 501 23,000  Level Houston Center
Fri 01:32:54 PM 30.1494 -93.0600 81° East 437 503 23,000  Level Houston Center
Fri 01:33:56 PM 30.1761 -92.9236 77° East 438 504 23,000 -48 Level Houston Center
Fri 01:34:58 PM 30.2036 -92.7875 77° East 438 504 22,900 -774 Descending Houston Center
Fri 01:36:00 PM 30.2300 -92.6497 77° East 441 507 21,400 -1,694 Descending Houston Center
Fri 01:37:02 PM 30.2558 -92.5169 77° East 429 494 19,400 -1,161 Descending Houston Center
Fri 01:38:04 PM 30.2850 -92.3603 78° East 417 480 19,000 -581 Descending Houston Center
Fri 01:39:06 PM 30.3100 -92.2344 77° East 415 478 18,200 -1,403 Descending Houston Center
Fri 01:40:08 PM 30.3347 -92.1044 78° East 415 478 16,100 -2,081 Descending Houston Center
Fri 01:41:10 PM 30.3569 -91.9831 78° East 390 449 13,900 -2,274 Descending Houston Center
Fri 01:42:12 PM 30.3842 -91.8431 77° East 374 430 11,400 -1,392 Descending Houston Center
Fri 01:43:15 PM 30.4050 -91.7344 77° East 351 404 11,000 -192 Descending Houston Center
Fri 01:44:17 PM 30.4247 -91.6314 77° East 339 390 11,000 -629 Level Houston Center
Fri 01:45:19 PM 30.4442 -91.5381 76° East 302 348 9,700 -1,500 Descending Houston Center
Fri 01:46:21 PM 30.4572 -91.4503 80° East 281 323 7,900 -1,742 Descending Houston Center
Fri 01:47:23 PM 30.4908 -91.3750 63° Northeast 262 302 6,100 -1,887 Descending Houston Center
Fri 01:48:25 PM 30.5267 -91.2861 65° Northeast 257 296 4,000 -1,065 Descending Houston Center
Fri 01:49:27 PM 30.5644 -91.2261 54° Northeast 244 281 3,900 -435 Descending Houston Center
Fri 01:50:29 PM 30.6475 -91.1750 28° Northeast 328 377 3,100 -774 Descending Houston Center

Login

Don't have an account? Register now (free) for customized features, flight alerts, and more!